createdAt,value
2023-02-25T00:00:22.828Z,100.00
2023-02-25T00:02:52.559Z,100.00
2023-02-25T00:05:21.695Z,100.00
2023-02-25T00:07:50.851Z,100.00
2023-02-25T00:10:20.085Z,100.00
2023-02-25T00:12:50.802Z,100.00
2023-02-25T00:15:20.192Z,100.00
2023-02-25T00:17:49.874Z,100.00
2023-02-25T00:20:20.719Z,100.00
2023-02-25T00:22:49.884Z,100.00
2023-02-25T00:25:19.086Z,100.00
2023-02-25T00:27:49.735Z,100.00
2023-02-25T00:30:18.984Z,100.00
2023-02-25T00:32:48.280Z,100.00
2023-02-25T00:35:17.609Z,100.00
2023-02-25T00:37:46.731Z,100.00
2023-02-25T00:40:15.849Z,100.00
2023-02-25T00:42:44.962Z,100.00
2023-02-25T00:45:15.476Z,100.00
2023-02-25T00:47:44.920Z,100.00
2023-02-25T00:50:14.284Z,100.00
2023-02-25T00:52:43.375Z,100.00
2023-02-25T00:55:12.543Z,100.00
2023-02-25T00:57:43.128Z,100.00
2023-02-25T01:00:16.872Z,100.00
2023-02-25T01:02:46.421Z,100.00
2023-02-25T01:05:16.544Z,100.00
2023-02-25T01:07:45.766Z,100.00
2023-02-25T01:10:14.852Z,100.00
2023-02-25T01:12:43.918Z,100.00
2023-02-25T01:15:15.004Z,100.00
2023-02-25T01:17:44.072Z,100.00
2023-02-25T01:20:13.768Z,100.00
2023-02-25T01:22:42.830Z,100.00
2023-02-25T01:25:17.543Z,100.00
2023-02-25T01:27:46.685Z,100.00
2023-02-25T01:30:18.447Z,100.00
2023-02-25T01:32:47.565Z,100.00
2023-02-25T01:35:16.761Z,100.00
2023-02-25T01:37:47.490Z,100.00
2023-02-25T01:40:17.484Z,100.00
2023-02-25T01:42:47.649Z,100.00
2023-02-25T01:45:29.292Z,100.00
2023-02-25T01:48:09.961Z,100.00
2023-02-25T01:50:44.782Z,100.00
2023-02-25T01:53:16.279Z,100.00
2023-02-25T01:55:45.818Z,100.00
2023-02-25T01:58:15.465Z,100.00
2023-02-25T02:00:46.133Z,100.00
2023-02-25T02:03:16.902Z,100.00
2023-02-25T02:06:01.117Z,100.00
2023-02-25T02:08:31.748Z,100.00
2023-02-25T02:11:01.409Z,100.00
2023-02-25T02:13:34.986Z,100.00
2023-02-25T02:16:22.730Z,100.00
2023-02-25T02:18:58.048Z,100.00
2023-02-25T02:21:51.144Z,100.00
2023-02-25T02:25:00.540Z,100.00
2023-02-25T02:27:40.341Z,100.00
2023-02-25T02:30:35.314Z,100.00
2023-02-25T02:33:12.718Z,100.00
2023-02-25T02:35:50.301Z,100.00
2023-02-25T02:38:28.728Z,100.00
2023-02-25T02:41:06.007Z,100.00
2023-02-25T02:43:42.093Z,100.00
2023-02-25T02:46:20.230Z,100.00
2023-02-25T02:48:57.371Z,100.00
2023-02-25T02:51:31.482Z,100.00
2023-02-25T02:54:05.904Z,100.00
2023-02-25T02:56:40.124Z,100.00
2023-02-25T02:59:14.602Z,100.00
2023-02-25T03:01:51.369Z,100.00
2023-02-25T03:04:26.822Z,100.00
2023-02-25T03:07:02.507Z,100.00
2023-02-25T03:09:39.181Z,100.00
2023-02-25T03:12:09.959Z,100.00
2023-02-25T03:14:40.110Z,100.00
2023-02-25T03:17:12.591Z,100.00
2023-02-25T03:19:46.759Z,100.00
2023-02-25T03:22:19.469Z,100.00
2023-02-25T03:24:55.133Z,100.00
2023-02-25T03:27:28.396Z,100.00
2023-02-25T03:30:07.072Z,100.00
2023-02-25T03:32:40.336Z,100.00
2023-02-25T03:35:13.891Z,100.00
2023-02-25T03:37:47.386Z,100.00
2023-02-25T03:40:17.692Z,100.00
2023-02-25T03:42:52.069Z,100.00
2023-02-25T03:45:22.674Z,100.00
2023-02-25T03:47:52.561Z,100.00
2023-02-25T03:50:28.805Z,100.00
2023-02-25T03:53:02.685Z,100.00
2023-02-25T03:55:50.693Z,100.00
2023-02-25T03:58:20.170Z,100.00
2023-02-25T04:00:55.772Z,100.00
2023-02-25T04:03:27.074Z,100.00
2023-02-25T04:05:57.664Z,100.00
2023-02-25T04:08:27.495Z,100.00
2023-02-25T04:10:56.585Z,100.00
2023-02-25T04:13:25.656Z,100.00
2023-02-25T04:15:55.065Z,100.00
2023-02-25T04:18:26.556Z,100.00
2023-02-25T04:20:57.170Z,100.00
2023-02-25T04:23:26.344Z,100.00
2023-02-25T04:25:55.399Z,100.00
2023-02-25T04:28:24.483Z,100.00
2023-02-25T04:30:53.662Z,100.00
2023-02-25T04:33:22.802Z,100.00
2023-02-25T04:35:52.690Z,100.00
2023-02-25T04:38:23.123Z,100.00
2023-02-25T04:40:53.039Z,100.00
2023-02-25T04:43:22.137Z,100.00
2023-02-25T04:45:51.150Z,100.00
2023-02-25T04:48:24.152Z,100.00
2023-02-25T04:50:53.406Z,100.00
2023-02-25T04:53:24.007Z,100.00
2023-02-25T04:55:53.170Z,100.00
2023-02-25T04:58:22.366Z,100.00
2023-02-25T05:00:52.342Z,100.00
2023-02-25T05:03:21.393Z,100.00
2023-02-25T05:05:50.561Z,100.00
2023-02-25T05:08:19.650Z,100.00
2023-02-25T05:10:50.183Z,100.00
2023-02-25T05:13:20.019Z,100.00
2023-02-25T05:15:49.212Z,100.00
2023-02-25T05:18:18.484Z,100.00
2023-02-25T05:20:48.365Z,100.00
2023-02-25T05:23:17.423Z,100.00
2023-02-25T05:25:46.451Z,100.00
2023-02-25T05:28:16.874Z,100.00
2023-02-25T05:30:45.991Z,100.00
2023-02-25T05:33:15.060Z,100.00
2023-02-25T05:35:44.817Z,100.00
2023-02-25T05:38:13.886Z,100.00
2023-02-25T05:40:42.925Z,100.00
2023-02-25T05:43:11.964Z,100.00
2023-02-25T05:45:42.473Z,100.00
2023-02-25T05:48:11.586Z,100.00
2023-02-25T05:50:41.276Z,100.00
2023-02-25T05:53:10.819Z,100.00
2023-02-25T05:55:43.040Z,100.00
2023-02-25T05:58:12.731Z,100.00
2023-02-25T06:00:43.695Z,100.00
2023-02-25T06:03:12.821Z,100.00
2023-02-25T06:05:42.729Z,100.00
2023-02-25T06:08:12.407Z,100.00
2023-02-25T06:10:42.059Z,100.00
2023-02-25T06:13:12.770Z,100.00
2023-02-25T06:15:44.199Z,100.00
2023-02-25T06:18:13.399Z,100.00
2023-02-25T06:20:42.464Z,100.00
2023-02-25T06:23:11.637Z,100.00
2023-02-25T06:25:40.736Z,100.00
2023-02-25T06:28:10.947Z,100.00
2023-02-25T06:30:42.250Z,100.00
2023-02-25T06:33:12.725Z,100.00
2023-02-25T06:35:42.469Z,100.00
2023-02-25T06:38:11.579Z,100.00
2023-02-25T06:40:40.702Z,100.00
2023-02-25T06:43:09.742Z,100.00
2023-02-25T06:45:42.788Z,100.00
2023-02-25T06:48:13.317Z,100.00
2023-02-25T06:50:43.092Z,100.00
2023-02-25T06:53:12.158Z,100.00
2023-02-25T06:55:41.871Z,100.00
2023-02-25T06:58:10.945Z,100.00
2023-02-25T07:00:43.158Z,100.00
2023-02-25T07:03:14.747Z,100.00
2023-02-25T07:05:44.159Z,100.00
2023-02-25T07:08:13.454Z,100.00
2023-02-25T07:10:42.519Z,100.00
2023-02-25T07:13:12.547Z,100.00
2023-02-25T07:15:41.655Z,100.00
2023-02-25T07:18:10.783Z,100.00
2023-02-25T07:20:41.237Z,100.00
2023-02-25T07:23:10.614Z,100.00
2023-02-25T07:25:41.250Z,100.00
2023-02-25T07:28:11.121Z,100.00
2023-02-25T07:30:40.787Z,100.00
2023-02-25T07:33:10.132Z,100.00
2023-02-25T07:35:40.910Z,100.00
2023-02-25T07:38:12.790Z,100.00
2023-02-25T07:40:42.794Z,100.00
2023-02-25T07:43:11.991Z,100.00
2023-02-25T07:45:42.032Z,100.00
2023-02-25T07:48:11.435Z,100.00
2023-02-25T07:50:42.379Z,100.00
2023-02-25T07:53:11.743Z,100.00
2023-02-25T07:55:43.709Z,100.00
2023-02-25T07:58:13.822Z,100.00
2023-02-25T08:00:45.717Z,100.00
2023-02-25T08:03:15.126Z,100.00
2023-02-25T08:05:45.600Z,100.00
2023-02-25T08:08:14.776Z,100.00
2023-02-25T08:10:44.113Z,100.00
2023-02-25T08:13:13.300Z,100.00
2023-02-25T08:15:43.065Z,100.00
2023-02-25T08:18:12.596Z,100.00
2023-02-25T08:20:48.257Z,100.00
2023-02-25T08:23:17.321Z,100.00
2023-02-25T08:25:46.455Z,100.00
2023-02-25T08:28:15.565Z,100.00
2023-02-25T08:30:44.892Z,100.00
2023-02-25T08:33:14.628Z,100.00
2023-02-25T08:35:43.885Z,100.00
2023-02-25T08:38:14.461Z,100.00
2023-02-25T08:40:43.753Z,100.00
2023-02-25T08:43:12.863Z,100.00
2023-02-25T08:45:43.089Z,100.00
2023-02-25T08:48:12.184Z,100.00
2023-02-25T08:50:41.324Z,100.00
2023-02-25T08:53:11.982Z,100.00
2023-02-25T08:55:42.830Z,100.00
2023-02-25T08:58:12.105Z,100.00
2023-02-25T09:00:41.709Z,100.00
2023-02-25T09:03:10.905Z,100.00
2023-02-25T09:05:40.020Z,100.00
2023-02-25T09:08:09.101Z,100.00
2023-02-25T09:10:49.817Z,100.00
2023-02-25T09:13:21.269Z,100.00
2023-02-25T09:15:57.609Z,100.00
2023-02-25T09:18:27.124Z,100.00
2023-02-25T09:20:56.245Z,100.00
2023-02-25T09:23:25.307Z,100.00
2023-02-25T09:25:54.938Z,100.00
2023-02-25T09:28:25.347Z,100.00
2023-02-25T09:30:54.405Z,100.00
2023-02-25T09:33:23.534Z,100.00
2023-02-25T09:35:52.670Z,100.00
2023-02-25T09:38:21.995Z,100.00
2023-02-25T09:40:51.503Z,100.00
2023-02-25T09:43:28.104Z,100.00
2023-02-25T09:46:06.112Z,100.00
2023-02-25T09:48:39.210Z,100.00
2023-02-25T09:51:19.916Z,100.00
2023-02-25T09:53:54.023Z,100.00
2023-02-25T09:56:27.638Z,100.00
2023-02-25T09:58:59.481Z,100.00
2023-02-25T10:01:36.323Z,100.00
2023-02-25T10:04:15.457Z,100.00
2023-02-25T10:06:47.695Z,100.00
2023-02-25T10:09:26.873Z,100.00
2023-02-25T10:12:07.207Z,100.00
2023-02-25T10:15:06.312Z,100.00
2023-02-25T10:17:45.727Z,100.00
2023-02-25T10:20:40.294Z,100.00
2023-02-25T10:23:23.612Z,100.00
2023-02-25T10:25:59.594Z,100.00
2023-02-25T10:28:31.212Z,100.00
2023-02-25T10:31:07.110Z,100.00
2023-02-25T10:33:40.216Z,100.00
2023-02-25T10:36:14.684Z,100.00
2023-02-25T10:38:46.384Z,100.00
2023-02-25T10:41:15.743Z,100.00
2023-02-25T10:43:46.229Z,100.00
2023-02-25T10:46:22.559Z,100.00
2023-02-25T10:48:57.435Z,100.00
2023-02-25T10:51:28.332Z,100.00
2023-02-25T10:54:07.258Z,100.00
2023-02-25T10:56:43.526Z,100.00
2023-02-25T10:59:30.213Z,100.00
2023-02-25T11:02:03.087Z,100.00
2023-02-25T11:04:37.906Z,100.00
2023-02-25T11:07:29.563Z,100.00
2023-02-25T11:10:14.566Z,100.00
2023-02-25T11:12:46.003Z,100.00
2023-02-25T11:15:44.436Z,100.00
2023-02-25T11:18:22.897Z,100.00
2023-02-25T11:20:55.421Z,100.00
2023-02-25T11:23:35.036Z,100.00
2023-02-25T11:26:06.675Z,100.00
2023-02-25T11:28:40.170Z,100.00
2023-02-25T11:31:14.029Z,100.00
2023-02-25T11:33:51.700Z,100.00
2023-02-25T11:36:25.953Z,100.00
2023-02-25T11:39:16.483Z,100.00
2023-02-25T11:41:46.433Z,100.00
2023-02-25T11:44:27.945Z,100.00
2023-02-25T11:47:04.224Z,100.00
2023-02-25T11:49:49.788Z,100.00
2023-02-25T11:52:26.060Z,100.00
2023-02-25T11:55:08.884Z,100.00
2023-02-25T11:57:46.471Z,100.00
2023-02-25T12:00:25.517Z,100.00
2023-02-25T12:03:11.349Z,100.00
2023-02-25T12:06:10.444Z,100.00
2023-02-25T12:09:11.119Z,100.00
2023-02-25T12:12:15.151Z,100.00
2023-02-25T12:15:23.960Z,100.00
2023-02-25T12:18:34.645Z,100.00
2023-02-25T12:21:49.792Z,100.00
2023-02-25T12:24:37.400Z,100.00
2023-02-25T12:27:44.285Z,100.00
2023-02-25T12:30:42.714Z,100.00
2023-02-25T12:33:32.986Z,100.00
2023-02-25T12:36:16.525Z,100.00
2023-02-25T12:39:15.173Z,100.00
2023-02-25T12:41:54.744Z,100.00
2023-02-25T12:44:52.000Z,100.00
2023-02-25T12:47:32.239Z,100.00
2023-02-25T12:50:25.094Z,100.00
2023-02-25T12:53:24.858Z,100.00
2023-02-25T12:56:05.503Z,100.00
2023-02-25T12:58:57.705Z,100.00
2023-02-25T13:01:39.008Z,100.00
2023-02-25T13:04:35.526Z,100.00
2023-02-25T13:07:34.356Z,100.00
2023-02-25T13:10:19.752Z,99.05
2023-02-25T13:13:04.428Z,96.64
2023-02-25T13:15:46.281Z,100.00
2023-02-25T13:18:26.424Z,99.60
2023-02-25T13:21:08.946Z,94.76
2023-02-25T13:24:18.897Z,87.85
2023-02-25T13:27:22.289Z,91.90
2023-02-25T13:30:24.526Z,91.72
2023-02-25T13:33:06.740Z,88.88
2023-02-25T13:35:45.950Z,86.36
2023-02-25T13:38:41.707Z,86.95
2023-02-25T13:41:39.166Z,86.74
2023-02-25T13:44:28.964Z,93.63
2023-02-25T13:47:32.608Z,97.88
2023-02-25T13:50:40.513Z,100.00
2023-02-25T13:53:35.021Z,92.41
2023-02-25T13:56:38.237Z,83.69
2023-02-25T13:59:23.642Z,75.22
2023-02-25T14:02:15.498Z,72.13
2023-02-25T14:05:04.948Z,75.08
2023-02-25T14:08:22.041Z,82.08
2023-02-25T14:11:01.224Z,87.14
2023-02-25T14:14:02.722Z,84.34
2023-02-25T14:16:43.338Z,85.27
2023-02-25T14:19:31.687Z,74.79
2023-02-25T14:22:35.902Z,69.08
2023-02-25T14:25:21.415Z,75.21
2023-02-25T14:28:03.177Z,86.42
2023-02-25T14:30:44.471Z,87.19
2023-02-25T14:33:32.968Z,89.96
2023-02-25T14:36:16.522Z,92.49
2023-02-25T14:39:19.636Z,92.80
2023-02-25T14:42:02.567Z,94.30
2023-02-25T14:44:40.994Z,95.02
2023-02-25T14:47:15.523Z,95.96
2023-02-25T14:49:59.703Z,97.16
2023-02-25T14:52:45.200Z,94.68
2023-02-25T14:55:30.351Z,90.45
2023-02-25T14:58:48.277Z,89.54
2023-02-25T15:01:45.213Z,87.99
2023-02-25T15:04:47.411Z,89.34
2023-02-25T15:07:26.899Z,91.13
2023-02-25T15:10:28.192Z,92.43
2023-02-25T15:13:20.072Z,95.28
2023-02-25T15:16:03.789Z,95.45
2023-02-25T15:19:01.404Z,97.90
2023-02-25T15:21:39.351Z,100.00
2023-02-25T15:24:32.495Z,100.00
2023-02-25T15:27:02.012Z,100.00
2023-02-25T15:29:56.750Z,100.00
2023-02-25T15:32:29.932Z,100.00
2023-02-25T15:35:02.363Z,100.00
2023-02-25T15:37:36.088Z,100.00
2023-02-25T15:40:46.262Z,100.00
2023-02-25T15:43:45.165Z,100.00
2023-02-25T15:46:48.049Z,100.00
2023-02-25T15:49:29.046Z,100.00
2023-02-25T15:52:03.981Z,100.00
2023-02-25T15:54:53.020Z,100.00
2023-02-25T15:57:37.919Z,100.00
2023-02-25T16:00:51.975Z,100.00
2023-02-25T16:03:42.730Z,100.00
2023-02-25T16:06:19.893Z,100.00
2023-02-25T16:08:54.656Z,100.00
2023-02-25T16:11:34.847Z,100.00
2023-02-25T16:14:08.044Z,100.00
2023-02-25T16:16:41.609Z,100.00
2023-02-25T16:19:17.772Z,100.00
2023-02-25T16:21:50.235Z,100.00
2023-02-25T16:24:20.974Z,100.00
2023-02-25T16:26:58.752Z,100.00
2023-02-25T16:29:40.926Z,100.00
2023-02-25T16:32:18.694Z,100.00
2023-02-25T16:34:53.508Z,100.00
2023-02-25T16:37:30.379Z,100.00
2023-02-25T16:40:01.764Z,100.00
2023-02-25T16:42:35.741Z,100.00
2023-02-25T16:45:06.929Z,100.00
2023-02-25T16:47:39.935Z,100.00
2023-02-25T16:50:16.171Z,100.00
2023-02-25T16:52:50.445Z,100.00
2023-02-25T16:55:23.892Z,100.00
2023-02-25T16:58:07.788Z,100.00
2023-02-25T17:00:37.426Z,100.00
2023-02-25T17:03:12.683Z,100.00
2023-02-25T17:05:41.880Z,100.00
2023-02-25T17:08:17.323Z,100.00
2023-02-25T17:10:51.806Z,100.00
2023-02-25T17:13:25.509Z,100.00
2023-02-25T17:15:55.274Z,100.00
2023-02-25T17:18:30.943Z,100.00
2023-02-25T17:21:05.718Z,100.00
2023-02-25T17:23:40.349Z,100.00
2023-02-25T17:26:15.127Z,100.00
2023-02-25T17:28:47.238Z,100.00
2023-02-25T17:31:19.321Z,100.00
2023-02-25T17:33:50.961Z,100.00
2023-02-25T17:36:23.631Z,100.00
2023-02-25T17:38:57.544Z,100.00
2023-02-25T17:41:28.666Z,100.00
2023-02-25T17:43:58.110Z,100.00
2023-02-25T17:46:36.101Z,100.00
2023-02-25T17:49:18.621Z,100.00
2023-02-25T17:51:52.425Z,100.00
2023-02-25T17:54:24.263Z,100.00
2023-02-25T17:57:03.356Z,100.00
2023-02-25T17:59:39.502Z,100.00
2023-02-25T18:02:30.919Z,100.00
2023-02-25T18:05:23.447Z,100.00
2023-02-25T18:08:22.588Z,100.00
2023-02-25T18:10:58.132Z,100.00
2023-02-25T18:13:36.174Z,100.00
2023-02-25T18:16:40.772Z,100.00
2023-02-25T18:19:19.656Z,100.00
2023-02-25T18:21:48.850Z,100.00
2023-02-25T18:24:24.794Z,100.00
2023-02-25T18:27:18.709Z,100.00
2023-02-25T18:29:49.513Z,100.00
2023-02-25T18:32:18.686Z,100.00
2023-02-25T18:34:48.549Z,100.00
2023-02-25T18:37:20.310Z,100.00
2023-02-25T18:39:51.366Z,100.00
2023-02-25T18:42:20.483Z,100.00
2023-02-25T18:44:51.166Z,100.00
2023-02-25T18:47:20.363Z,100.00
2023-02-25T18:49:49.597Z,100.00
2023-02-25T18:52:23.966Z,100.00
2023-02-25T18:54:53.211Z,100.00
2023-02-25T18:57:26.006Z,100.00
2023-02-25T18:59:56.590Z,100.00
2023-02-25T19:02:29.499Z,100.00
2023-02-25T19:05:00.485Z,100.00
2023-02-25T19:07:31.533Z,100.00
2023-02-25T19:10:00.827Z,100.00
2023-02-25T19:12:32.318Z,100.00
2023-02-25T19:15:06.271Z,100.00
2023-02-25T19:17:35.362Z,100.00
2023-02-25T19:20:05.499Z,100.00
2023-02-25T19:22:34.586Z,100.00
2023-02-25T19:25:04.589Z,100.00
2023-02-25T19:27:33.681Z,100.00
2023-02-25T19:30:05.138Z,100.00
2023-02-25T19:32:34.338Z,100.00
2023-02-25T19:35:04.426Z,100.00
2023-02-25T19:37:37.707Z,100.00
2023-02-25T19:40:10.252Z,100.00
2023-02-25T19:42:39.566Z,100.00
2023-02-25T19:45:12.985Z,100.00
2023-02-25T19:47:42.293Z,100.00
2023-02-25T19:50:12.926Z,100.00
2023-02-25T19:52:42.619Z,100.00
2023-02-25T19:55:14.004Z,100.00
2023-02-25T19:57:43.388Z,100.00
2023-02-25T20:00:17.600Z,100.00
2023-02-25T20:02:46.851Z,100.00
2023-02-25T20:05:16.750Z,100.00
2023-02-25T20:07:45.914Z,100.00
2023-02-25T20:10:16.896Z,100.00
2023-02-25T20:12:48.402Z,100.00
2023-02-25T20:15:19.392Z,100.00
2023-02-25T20:17:49.245Z,100.00
2023-02-25T20:20:18.764Z,100.00
2023-02-25T20:22:48.112Z,100.00
2023-02-25T20:25:17.648Z,100.00
2023-02-25T20:27:47.381Z,100.00
2023-02-25T20:30:19.233Z,100.00
2023-02-25T20:32:48.624Z,100.00
2023-02-25T20:35:20.265Z,100.00
2023-02-25T20:38:09.277Z,100.00
2023-02-25T20:40:38.687Z,100.00
2023-02-25T20:43:11.544Z,100.00
2023-02-25T20:45:42.706Z,100.00
2023-02-25T20:48:26.806Z,100.00
2023-02-25T20:50:56.423Z,100.00
2023-02-25T20:53:25.909Z,100.00
2023-02-25T20:55:57.062Z,100.00
2023-02-25T20:58:26.260Z,100.00
2023-02-25T21:00:57.324Z,100.00
2023-02-25T21:03:26.531Z,100.00
2023-02-25T21:05:55.722Z,100.00
2023-02-25T21:08:27.351Z,100.00
2023-02-25T21:10:58.264Z,100.00
2023-02-25T21:13:27.337Z,100.00
2023-02-25T21:16:02.109Z,100.00
2023-02-25T21:18:31.896Z,100.00
2023-02-25T21:21:02.518Z,100.00
2023-02-25T21:23:32.635Z,100.00
2023-02-25T21:26:02.357Z,100.00
2023-02-25T21:28:32.165Z,100.00
2023-02-25T21:31:04.971Z,100.00
2023-02-25T21:33:34.353Z,100.00
2023-02-25T21:36:04.077Z,100.00
2023-02-25T21:38:33.267Z,100.00
2023-02-25T21:41:07.921Z,100.00
2023-02-25T21:43:37.672Z,100.00
2023-02-25T21:46:10.892Z,100.00
2023-02-25T21:48:40.809Z,100.00
2023-02-25T21:51:16.251Z,100.00
2023-02-25T21:53:45.708Z,100.00
2023-02-25T21:56:16.328Z,100.00
2023-02-25T21:58:45.996Z,100.00
2023-02-25T22:01:18.775Z,100.00
2023-02-25T22:03:48.470Z,100.00
2023-02-25T22:06:18.694Z,100.00
2023-02-25T22:08:47.918Z,100.00
2023-02-25T22:11:18.722Z,100.00
2023-02-25T22:13:48.902Z,100.00
2023-02-25T22:16:20.129Z,100.00
2023-02-25T22:18:49.439Z,100.00
2023-02-25T22:21:20.347Z,100.00
2023-02-25T22:23:51.065Z,100.00
2023-02-25T22:26:24.614Z,100.00
2023-02-25T22:28:56.159Z,100.00
2023-02-25T22:31:27.563Z,100.00
2023-02-25T22:33:57.772Z,100.00
2023-02-25T22:36:27.391Z,100.00
2023-02-25T22:38:56.815Z,100.00
2023-02-25T22:41:28.587Z,100.00
2023-02-25T22:43:59.090Z,100.00
2023-02-25T22:46:30.916Z,100.00
2023-02-25T22:49:00.527Z,100.00
2023-02-25T22:51:32.279Z,100.00
2023-02-25T22:54:01.579Z,100.00
2023-02-25T22:56:30.677Z,100.00
2023-02-25T22:59:04.103Z,100.00
2023-02-25T23:01:36.174Z,100.00
2023-02-25T23:04:08.199Z,100.00
2023-02-25T23:06:44.506Z,100.00
2023-02-25T23:09:16.267Z,100.00
2023-02-25T23:11:47.175Z,100.00
2023-02-25T23:14:17.250Z,100.00
2023-02-25T23:16:48.994Z,100.00
2023-02-25T23:19:21.543Z,100.00
2023-02-25T23:21:50.908Z,100.00
2023-02-25T23:24:20.065Z,100.00
2023-02-25T23:26:53.599Z,100.00
2023-02-25T23:29:22.882Z,100.00
2023-02-25T23:31:53.377Z,100.00
2023-02-25T23:34:24.740Z,100.00
2023-02-25T23:36:57.208Z,100.00
2023-02-25T23:39:26.850Z,100.00
2023-02-25T23:41:55.956Z,100.00
2023-02-25T23:44:25.505Z,100.00
2023-02-25T23:46:56.303Z,100.00
2023-02-25T23:49:25.417Z,100.00
2023-02-25T23:51:54.592Z,100.00
2023-02-25T23:54:24.397Z,100.00
2023-02-25T23:56:53.562Z,100.00
2023-02-25T23:59:24.335Z,100.00
